Time;durP1;ratioP1;P1;durP2;ratioP2;P2;SDS_P1;SDS_P2;PMS_P1;PMS_P2;Temp;Humidity;BMP_temperature;BMP_pressure;BME280_temperature;BME280_humidity;BME280_pressure;Samples;Min_cycle;Max_cycle;Signal;HPM_P1;HPM_P2
2022/08/01 00:02:01;;;;;;;4.28;1.90;;;;;;;26.24;40.47;94803.31;5010246;28;20038;-64
2022/08/01 00:04:27;;;;;;;2.92;1.80;;;;;;;26.42;39.91;94827.78;5009488;28;20037;-72
2022/08/01 00:09:31;;;;;;;2.30;1.65;;;;;;;26.46;39.67;94838.44;5081832;27;20418;-71
2022/08/01 00:11:57;;;;;;;1.88;1.70;;;;;;;26.46;39.75;94833.66;5072202;28;20056;-69
2022/08/01 00:14:22;;;;;;;3.22;1.88;;;;;;;26.34;39.87;94815.31;5063010;28;20029;-73
2022/08/01 00:16:48;;;;;;;4.22;1.70;;;;;;;26.32;39.58;94817.81;5061258;28;20104;-67
2022/08/01 00:19:13;;;;;;;3.45;2.05;;;;;;;26.36;39.70;94823.72;5067444;28;20086;-70
2022/08/01 00:21:39;;;;;;;2.28;1.40;;;;;;;26.39;39.62;94822.66;5063065;28;20086;-70
2022/08/01 00:24:05;;;;;;;2.80;1.80;;;;;;;26.35;39.34;94822.22;5060038;28;20025;-63
2022/08/01 00:26:30;;;;;;;3.85;1.85;;;;;;;26.25;39.16;94807.53;5061872;28;20086;-67
2022/08/01 00:28:55;;;;;;;1.80;1.50;;;;;;;26.38;39.14;94832.13;5067372;28;20518;-68
2022/08/01 00:31:21;;;;;;;3.20;1.50;;;;;;;26.23;39.31;94801.09;5068981;28;20037;-72
2022/08/01 00:33:46;;;;;;;1.67;1.40;;;;;;;26.27;39.46;94805.72;5066477;28;20028;-66
2022/08/01 00:36:12;;;;;;;3.80;1.90;;;;;;;26.27;39.35;94816.69;5066985;28;20039;-68
2022/08/01 00:38:37;;;;;;;2.70;1.65;;;;;;;25.62;39.27;94729.81;5063264;28;20043;-70
2022/08/01 00:41:03;;;;;;;2.30;1.70;;;;;;;26.24;39.53;94827.94;5072742;28;20021;-68
2022/08/01 00:43:28;;;;;;;2.90;1.60;;;;;;;26.17;39.64;94812.16;5064089;28;20055;-73
2022/08/01 00:45:54;;;;;;;1.67;1.58;;;;;;;26.08;40.27;94809.88;5052099;28;20025;-71
2022/08/01 00:48:19;;;;;;;3.20;1.70;;;;;;;26.26;39.55;94830.88;5064525;28;20411;-69
2022/08/01 00:50:45;;;;;;;3.38;1.70;;;;;;;26.04;40.40;94803.28;5066312;28;20017;-75
2022/08/01 00:53:10;;;;;;;3.72;2.15;;;;;;;26.26;40.56;94836.34;5061334;28;20017;-72
2022/08/01 00:55:36;;;;;;;3.88;2.00;;;;;;;26.09;41.05;94816.09;5061898;28;20029;-69
2022/08/01 00:58:01;;;;;;;4.32;2.60;;;;;;;26.00;41.05;94803.59;5061973;28;20086;-71
2022/08/01 01:00:27;;;;;;;3.55;2.20;;;;;;;26.09;41.24;94816.84;5067562;28;20036;-72
2022/08/01 01:02:52;;;;;;;3.50;2.15;;;;;;;25.98;40.86;94800.66;5068788;28;20039;-70
2022/08/01 01:05:18;;;;;;;3.17;2.55;;;;;;;26.03;41.44;94805.28;5071754;28;20028;-68
2022/08/01 01:08:04;;;;;;;3.00;2.70;;;;;;;26.10;41.43;94812.84;5072279;28;20051;-72
2022/08/01 01:10:50;;;;;;;4.70;2.60;;;;;;;25.79;41.57;94770.00;5064909;28;20177;-65
2022/08/01 01:13:35;;;;;;;3.78;3.00;;;;;;;26.08;41.56;94812.63;5049582;28;20047;-68
2022/08/01 01:16:06;;;;;;;2.85;2.05;;;;;;;25.93;41.58;94798.81;5083355;28;20028;-66
2022/08/01 01:18:35;;;;;;;4.28;2.90;;;;;;;26.04;42.01;94812.22;5072085;28;20024;-71
2022/08/01 01:21:27;;;;;;;3.70;2.22;;;;;;;25.89;41.88;94792.19;5083487;28;20024;-67
2022/08/01 01:24:30;;;;;;;2.80;2.22;;;;;;;26.02;41.73;94812.03;5010423;28;20495;-68
2022/08/01 01:27:10;;;;;;;2.85;2.03;;;;;;;25.99;41.81;94807.63;5067607;28;20036;-65
2022/08/01 01:29:42;;;;;;;;;;;;;;;25.95;41.49;94807.22;5059394;28;20482;-68
2022/08/01 01:32:29;;;;;;;3.63;2.10;;;;;;;25.76;41.59;94777.81;5038229;28;19964;-69
2022/08/01 01:34:54;;;;;;;2.55;2.03;;;;;;;25.78;41.22;94775.28;5039907;28;20490;-68
2022/08/01 01:37:21;;;;;;;7.07;2.03;;;;;;;25.73;41.06;94763.19;5050016;28;20029;-72
2022/08/01 01:39:48;;;;;;;2.63;2.20;;;;;;;25.89;41.05;94781.97;5070673;28;20499;-70
2022/08/01 01:42:14;;;;;;;2.45;1.60;;;;;;;25.66;40.80;94746.69;5033365;28;20035;-64
2022/08/01 01:44:39;;;;;;;3.67;1.85;;;;;;;25.94;40.37;94786.56;5025519;28;20423;-65
2022/08/01 01:47:05;;;;;;;3.58;1.88;;;;;;;25.78;40.22;94753.38;5043534;28;20097;-68
2022/08/01 01:49:30;;;;;;;2.70;1.77;;;;;;;25.94;40.03;94778.38;5046015;28;20104;-68
2022/08/01 01:51:56;;;;;;;2.95;1.33;;;;;;;25.94;39.75;94783.84;5037975;28;20540;-69
2022/08/01 01:54:22;;;;;;;2.13;1.42;;;;;;;25.87;39.58;94779.03;5069615;28;20032;-67
2022/08/01 01:56:48;;;;;;;3.90;1.45;;;;;;;25.73;39.24;94756.97;5032551;28;20028;-66
2022/08/01 01:59:24;;;;;;;2.58;1.45;;;;;;;25.71;39.05;94748.56;5071663;28;20047;-68
2022/08/01 02:01:51;;;;;;;2.20;1.33;;;;;;;25.72;38.52;94755.50;5041066;28;20028;-71
2022/08/01 02:04:16;;;;;;;2.65;1.30;;;;;;;25.85;38.08;94775.34;5062565;28;20690;-67
2022/08/01 02:06:43;;;;;;;2.08;1.30;;;;;;;25.81;37.72;94759.28;5053979;28;20339;-66
2022/08/01 02:09:08;;;;;;;1.35;1.08;;;;;;;25.93;37.74;94765.97;5042955;28;20040;-69
2022/08/01 02:11:35;;;;;;;1.92;1.08;;;;;;;25.73;37.39;94732.38;5067529;28;20419;-69
2022/08/01 02:14:01;;;;;;;1.58;1.20;;;;;;;25.86;37.41;94758.41;5066849;28;20059;-68
2022/08/01 02:16:34;;;;;;;2.45;1.05;;;;;;;25.69;36.99;94734.69;5066569;28;20021;-68
2022/08/01 02:18:59;;;;;;;3.28;1.48;;;;;;;25.78;36.84;94753.38;5037187;28;20032;-65
2022/08/01 02:21:28;;;;;;;2.17;1.30;;;;;;;25.90;36.86;94761.56;5052495;28;20039;-69
2022/08/01 02:23:54;;;;;;;1.75;1.02;;;;;;;25.73;36.83;94735.09;5047357;28;20441;-74
2022/08/01 02:26:20;;;;;;;1.92;1.60;;;;;;;25.87;36.59;94757.16;5032405;28;20090;-65
2022/08/01 02:28:57;;;;;;;4.05;1.42;;;;;;;25.86;36.55;94755.66;5029636;28;20151;-65
2022/08/01 02:31:23;;;;;;;1.95;1.02;;;;;;;25.79;36.69;94748.09;5041859;28;20035;-67
2022/08/01 02:34:09;;;;;;;1.50;1.10;;;;;;;25.87;36.35;94772.81;5067477;28;20108;-69
2022/08/01 02:36:35;;;;;;;3.33;1.20;;;;;;;25.75;36.72;94746.25;5046309;28;20040;-65
2022/08/01 02:39:03;;;;;;;2.35;1.45;;;;;;;25.68;36.87;94744.16;5041444;28;20023;-71
2022/08/01 02:41:28;;;;;;;1.67;1.30;;;;;;;25.69;37.01;94756.56;5035534;28;20033;-65
2022/08/01 02:43:58;;;;;;;2.25;1.30;;;;;;;25.59;36.70;94733.63;5064915;28;20384;-69
2022/08/01 02:46:27;;;;;;;3.45;1.30;;;;;;;25.77;36.93;94762.84;5032084;28;20043;-67
2022/08/01 02:48:53;;;;;;;2.85;1.40;;;;;;;25.73;36.97;94763.19;5031578;28;20041;-68
2022/08/01 02:51:19;;;;;;;2.58;1.33;;;;;;;25.55;36.96;94725.03;5048281;28;20047;-71
2022/08/01 02:53:44;;;;;;;3.90;1.23;;;;;;;25.70;36.73;94749.84;5047970;28;20019;-68
2022/08/01 02:56:10;;;;;;;2.40;1.35;;;;;;;25.72;37.24;94755.50;5050565;28;20530;-68
2022/08/01 02:58:36;;;;;;;1.63;1.30;;;;;;;25.49;37.12;94733.34;5068548;28;20067;-68
2022/08/01 03:01:01;;;;;;;3.50;1.50;;;;;;;25.47;37.09;94737.84;5030044;28;20029;-67
2022/08/01 03:03:27;;;;;;;3.67;1.20;;;;;;;25.64;36.87;94754.66;5049599;28;20086;-70
2022/08/01 03:05:52;;;;;;;2.10;1.30;;;;;;;25.58;37.20;94754.06;5067433;28;20544;-67
2022/08/01 03:08:18;;;;;;;3.88;1.25;;;;;;;25.59;37.15;94753.53;5058983;28;20049;-68
2022/08/01 03:10:44;;;;;;;1.67;1.20;;;;;;;25.49;37.03;94738.09;5031894;28;20032;-69
2022/08/01 03:13:10;;;;;;;2.40;1.33;;;;;;;25.57;37.45;94749.84;5041127;28;20052;-66
2022/08/01 03:15:37;;;;;;;2.03;1.33;;;;;;;25.47;37.34;94740.59;5038489;28;20557;-65
2022/08/01 03:18:03;;;;;;;3.47;1.63;;;;;;;25.43;37.45;94746.41;5048182;28;20032;-68
2022/08/01 03:20:28;;;;;;;3.15;1.70;;;;;;;25.56;37.72;94764.75;5042982;28;20036;-68
2022/08/01 03:22:53;;;;;;;2.97;1.42;;;;;;;25.54;38.04;94770.75;5030850;28;20028;-66
2022/08/01 03:25:19;;;;;;;1.83;1.25;;;;;;;25.35;38.50;94739.34;5050310;28;20475;-66
2022/08/01 03:27:47;;;;;;;2.78;1.67;;;;;;;25.44;38.33;94763.53;5069439;28;20127;-65
2022/08/01 03:30:13;;;;;;;2.28;1.48;;;;;;;25.43;38.76;94762.06;5049042;28;20044;-69
2022/08/01 03:32:38;;;;;;;3.60;1.52;;;;;;;25.44;39.00;94769.75;5065612;28;20021;-66
2022/08/01 03:35:04;;;;;;;4.00;1.70;;;;;;;25.37;39.28;94766.91;5068479;28;20430;-65
2022/08/01 03:37:34;;;;;;;3.92;2.00;;;;;;;25.39;39.20;94772.59;5058487;28;20040;-68
2022/08/01 03:40:28;;;;;;;3.05;1.77;;;;;;;25.36;39.62;94773.63;5049499;28;20035;-65
2022/08/01 03:42:59;;;;;;;2.70;1.90;;;;;;;25.31;39.96;94766.28;5033000;28;20037;-65
2022/08/01 03:45:27;;;;;;;4.25;2.05;;;;;;;24.97;40.18;94721.72;5019448;28;20025;-65
2022/08/01 03:47:55;;;;;;;7.93;2.58;;;;;;;25.25;39.96;94757.47;5018607;28;20020;-65
2022/08/01 03:50:21;;;;;;;2.38;1.75;;;;;;;25.03;40.28;94719.66;5072728;28;20499;-66
2022/08/01 03:52:46;;;;;;;2.78;1.55;;;;;;;25.25;40.88;94768.41;5030384;28;20023;-65
2022/08/01 03:55:12;;;;;;;3.58;2.03;;;;;;;25.22;40.64;94758.53;5074521;28;20512;-66
2022/08/01 03:57:37;;;;;;;3.95;1.65;;;;;;;25.28;40.55;94772.81;5030436;28;20025;-66
2022/08/01 04:00:07;;;;;;;2.92;1.92;;;;;;;25.21;40.70;94773.44;5040730;28;20066;-65
2022/08/01 04:02:32;;;;;;;3.88;2.17;;;;;;;25.23;40.66;94765.47;5034343;28;20021;-65
2022/08/01 04:04:58;;;;;;;2.83;1.77;;;;;;;25.30;40.11;94781.22;5051241;28;20059;-67
2022/08/01 04:07:26;;;;;;;2.50;1.95;;;;;;;25.29;39.93;94773.53;5064869;28;20056;-65
2022/08/01 04:09:51;;;;;;;5.32;2.33;;;;;;;25.21;40.67;94773.44;5069449;28;20031;-65
2022/08/01 04:12:17;;;;;;;5.57;2.10;;;;;;;25.18;40.82;94779.97;5077920;28;20031;-65
2022/08/01 04:14:43;;;;;;;4.28;2.30;;;;;;;25.14;41.12;94778.81;5073727;28;20032;-65
2022/08/01 04:17:08;;;;;;;5.38;2.28;;;;;;;25.01;41.37;94776.09;5069818;28;20065;-66
2022/08/01 04:19:34;;;;;;;3.55;2.33;;;;;;;24.93;41.43;94770.50;5078122;28;20071;-66
2022/08/01 04:21:59;;;;;;;5.50;2.50;;;;;;;24.93;41.71;94775.97;5066897;28;20035;-67
2022/08/01 04:24:25;;;;;;;3.67;2.22;;;;;;;24.74;41.63;94752.72;5032649;28;20450;-66
2022/08/01 04:26:50;;;;;;;3.92;2.30;;;;;;;24.79;41.69;94756.63;5057438;28;20028;-66
2022/08/01 04:29:16;;;;;;;3.53;2.50;;;;;;;24.92;41.50;94774.47;5051061;28;20034;-65
2022/08/01 04:31:42;;;;;;;4.70;2.47;;;;;;;24.82;41.88;94754.28;5036490;28;20032;-64
2022/08/01 04:34:08;;;;;;;9.93;2.70;;;;;;;24.99;41.86;94771.16;5043582;28;20088;-72
2022/08/01 04:36:36;;;;;;;3.85;2.72;;;;;;;25.04;42.42;94786.69;5045025;28;20542;-70
2022/08/01 04:39:01;;;;;;;5.30;2.90;;;;;;;25.04;42.31;94781.22;5054290;28;20047;-75
2022/08/01 04:41:27;;;;;;;6.18;2.85;;;;;;;24.91;42.37;94773.00;5025467;28;20029;-72
2022/08/01 04:43:54;;;;;;;4.25;2.80;;;;;;;24.91;42.42;94770.25;5045386;28;20162;-72
2022/08/01 04:46:19;;;;;;;8.30;3.15;;;;;;;24.98;42.53;94777.13;5036102;28;20043;-75
2022/08/01 04:48:44;;;;;;;6.03;3.00;;;;;;;25.01;43.09;94781.56;5043828;28;20029;-77
2022/08/01 04:51:15;;;;;;;5.90;3.10;;;;;;;24.87;43.18;94761.66;5024368;28;20033;-72
2022/08/01 04:53:40;;;;;;;5.85;3.47;;;;;;;24.98;42.91;94777.84;5059947;28;20017;-66
2022/08/01 04:56:06;;;;;;;12.75;3.22;;;;;;;24.79;43.22;94760.06;5050365;28;20052;-69
2022/08/01 04:58:32;;;;;;;5.03;3.22;;;;;;;25.03;42.87;94796.16;5067738;28;20380;-65
2022/08/01 05:00:57;;;;;;;7.53;3.60;;;;;;;25.10;42.99;94784.59;5068119;28;20021;-68
2022/08/01 05:03:23;;;;;;;7.35;3.33;;;;;;;25.05;42.58;94766.31;5077206;28;20020;-65
2022/08/01 05:05:48;;;;;;;5.55;3.50;;;;;;;25.27;42.42;94787.75;5069027;28;20494;-68
2022/08/01 05:08:14;;;;;;;10.43;4.13;;;;;;;25.28;42.07;94761.16;5068740;28;20044;-69
2022/08/01 05:10:39;;;;;;;11.15;3.75;;;;;;;25.51;41.71;94760.16;5074608;28;20035;-67
2022/08/01 05:13:06;;;;;;;7.72;3.33;;;;;;;25.65;41.74;94772.56;5070893;28;20028;-67
2022/08/01 05:15:31;;;;;;;6.60;3.83;;;;;;;25.59;41.23;94758.22;5036545;28;20024;-68
2022/08/01 05:17:57;;;;;;;7.85;4.28;;;;;;;25.87;40.98;94773.56;5050946;28;20403;-61
2022/08/01 05:20:22;;;;;;;9.65;4.50;;;;;;;25.87;40.74;94757.16;5058543;28;20040;-71
2022/08/01 05:22:48;;;;;;;7.03;3.88;;;;;;;26.14;40.64;94774.91;5056238;28;20035;-67
2022/08/01 05:25:13;;;;;;;7.55;4.22;;;;;;;26.25;40.76;94779.38;5053087;28;20025;-71
2022/08/01 05:27:40;;;;;;;8.30;3.85;;;;;;;26.35;40.40;94772.94;5058657;28;20020;-69
2022/08/01 05:30:09;;;;;;;8.63;4.30;;;;;;;26.34;41.09;94744.13;5081399;28;20063;-68
2022/08/01 05:32:34;;;;;;;7.95;3.40;;;;;;;26.62;40.23;94768.78;5064141;28;20017;-72
2022/08/01 05:35:00;;;;;;;6.95;3.60;;;;;;;26.46;40.08;94723.41;5043791;28;20082;-70
2022/08/01 05:37:26;;;;;;;8.77;3.58;;;;;;;26.55;39.95;94720.19;5069404;28;20028;-71
2022/08/01 05:39:51;;;;;;;7.47;3.40;;;;;;;26.98;39.41;94762.88;5066159;28;20025;-67
2022/08/01 05:42:16;;;;;;;6.00;3.08;;;;;;;27.11;40.11;94776.47;5078024;28;20036;-67
2022/08/01 05:44:42;;;;;;;9.63;3.58;;;;;;;26.99;39.07;94747.88;5069815;28;20011;-66
2022/08/01 05:47:08;;;;;;;6.55;3.03;;;;;;;27.31;39.01;94770.19;5039384;28;20037;-66
2022/08/01 05:49:33;;;;;;;6.43;3.17;;;;;;;27.38;38.40;94772.22;5033223;28;20025;-64
2022/08/01 05:52:00;;;;;;;10.93;2.72;;;;;;;27.31;38.36;94745.53;5048884;28;20123;-68
2022/08/01 05:54:26;;;;;;;6.90;2.85;;;;;;;27.44;37.99;94754.38;5051895;28;20040;-69
2022/08/01 05:56:51;;;;;;;7.18;2.78;;;;;;;27.56;37.84;94741.06;5061154;28;20037;-63
2022/08/01 05:59:17;;;;;;;5.05;2.45;;;;;;;27.80;37.78;94763.28;5057451;28;20039;-65
2022/08/01 06:01:42;;;;;;;5.85;2.67;;;;;;;27.85;37.33;94771.34;5055979;28;20025;-69
2022/08/01 06:04:08;;;;;;;5.25;2.35;;;;;;;27.74;37.40;94749.75;5031519;28;20263;-74
2022/08/01 06:06:33;;;;;;;3.58;2.00;;;;;;;28.04;36.10;94782.03;5056685;28;20484;-70
2022/08/01 06:08:59;;;;;;;4.25;2.22;;;;;;;27.96;36.20;94748.31;5060474;28;20404;-66
2022/08/01 06:11:24;;;;;;;4.65;1.80;;;;;;;28.11;35.20;94776.56;5045745;28;20087;-64
2022/08/01 06:13:50;;;;;;;3.85;1.83;;;;;;;28.16;34.38;94767.44;5045035;28;20024;-69
2022/08/01 06:16:16;;;;;;;5.22;1.90;;;;;;;28.22;33.58;94754.28;5047272;28;20036;-66
2022/08/01 06:18:41;;;;;;;6.45;2.78;;;;;;;28.24;33.81;94748.97;5048030;28;20086;-72
2022/08/01 06:21:07;;;;;;;3.42;1.48;;;;;;;28.27;33.56;94761.59;5046327;28;20032;-68
2022/08/01 06:23:32;;;;;;;2.58;1.50;;;;;;;28.47;33.61;94774.44;5063976;28;20025;-66
2022/08/01 06:25:58;;;;;;;6.72;2.03;;;;;;;28.37;33.67;94738.53;5066005;28;20048;-66
2022/08/01 06:28:23;;;;;;;2.95;1.40;;;;;;;28.72;33.08;94789.13;5063436;28;20052;-73
2022/08/01 06:30:49;;;;;;;2.63;1.35;;;;;;;28.68;32.96;94767.50;5062131;28;20404;-74
2022/08/01 06:33:14;;;;;;;4.10;1.40;;;;;;;28.56;33.38;94743.66;5057830;28;20129;-67
2022/08/01 06:35:40;;;;;;;3.13;1.40;;;;;;;28.65;32.83;94745.84;5056424;28;20032;-68
2022/08/01 06:38:05;;;;;;;3.17;1.60;;;;;;;28.81;33.04;94772.81;5063818;28;20609;-67
2022/08/01 06:40:31;;;;;;;3.00;1.60;;;;;;;28.88;32.61;94769.34;5053819;28;20415;-69
2022/08/01 06:42:57;;;;;;;2.65;1.30;;;;;;;28.71;32.39;94754.69;5065311;28;20115;-68
2022/08/01 06:45:22;;;;;;;2.88;1.40;;;;;;;28.67;32.25;94738.56;5074599;28;20086;-71
2022/08/01 06:47:48;;;;;;;2.88;1.58;;;;;;;28.76;32.83;94755.22;5053654;28;20480;-66
2022/08/01 06:50:14;;;;;;;5.03;1.40;;;;;;;28.77;32.55;94781.44;5051578;28;20160;-70
2022/08/01 06:52:40;;;;;;;3.17;1.73;;;;;;;28.60;33.10;94771.53;5054342;28;20089;-68
2022/08/01 06:55:06;;;;;;;2.58;1.50;;;;;;;28.49;33.32;94750.63;5035994;28;20465;-68
2022/08/01 06:57:31;;;;;;;3.22;1.55;;;;;;;28.52;33.12;94751.53;5046832;28;20111;-69
2022/08/01 06:59:57;;;;;;;3.55;1.50;;;;;;;28.47;33.64;94752.44;5055580;28;20514;-64
2022/08/01 07:02:22;;;;;;;2.60;1.15;;;;;;;28.34;33.43;94760.84;5039527;28;20078;-72
2022/08/01 07:04:48;;;;;;;2.20;1.50;;;;;;;28.26;33.56;94743.66;5053931;28;20058;-71
2022/08/01 07:07:13;;;;;;;2.50;1.50;;;;;;;28.02;33.99;94724.91;5051743;28;20471;-72
2022/08/01 07:09:42;;;;;;;3.03;1.27;;;;;;;27.88;33.76;94715.38;5057867;28;20039;-72
2022/08/01 07:12:08;;;;;;;4.38;1.60;;;;;;;28.02;34.43;94744.13;5061097;28;20488;-71
2022/08/01 07:14:34;;;;;;;2.88;1.38;;;;;;;27.87;34.17;94730.38;5041296;28;20036;-71
2022/08/01 07:16:59;;;;;;;4.65;1.50;;;;;;;27.86;34.48;94750.13;5063124;28;20036;-76
2022/08/01 07:19:25;;;;;;;2.22;1.65;;;;;;;27.80;35.08;94725.59;5072727;28;20483;-75
2022/08/01 07:21:50;;;;;;;3.03;1.50;;;;;;;27.93;35.15;94766.63;5046956;28;20023;-76
2022/08/01 07:24:16;;;;;;;2.50;1.45;;;;;;;27.64;35.54;94728.09;5054087;28;20033;-72
2022/08/01 07:26:42;;;;;;;4.22;1.63;;;;;;;27.60;34.84;94727.75;5048263;28;20044;-69
2022/08/01 07:29:08;;;;;;;2.88;1.45;;;;;;;27.69;35.68;94740.94;5032419;28;20094;-68
2022/08/01 07:31:33;;;;;;;3.80;1.70;;;;;;;27.71;35.42;94752.09;5058172;28;20040;-67
2022/08/01 07:33:59;;;;;;;2.80;1.77;;;;;;;27.44;35.91;94710.47;5052166;28;20016;-70
2022/08/01 07:36:24;;;;;;;2.50;1.83;;;;;;;27.72;35.58;94756.31;5045322;28;20486;-72
2022/08/01 07:38:50;;;;;;;3.95;1.90;;;;;;;27.70;35.67;94758.84;5046979;28;20082;-70
2022/08/01 07:41:15;;;;;;;2.80;1.50;;;;;;;27.66;35.85;94753.00;5046852;28;20028;-65
2022/08/01 07:43:41;;;;;;;6.43;2.03;;;;;;;27.63;35.46;94754.09;5059192;28;20073;-72
2022/08/01 07:46:06;;;;;;;3.83;1.60;;;;;;;27.62;35.63;94747.13;5046768;28;20439;-63
2022/08/01 07:48:32;;;;;;;4.68;1.65;;;;;;;27.55;34.99;94745.06;5064755;28;20040;-69
2022/08/01 07:50:57;;;;;;;2.95;1.73;;;;;;;27.57;35.38;94756.25;5074112;28;20063;-71
2022/08/01 07:53:22;;;;;;;3.78;1.70;;;;;;;27.54;35.79;94768.31;5064371;28;20017;-76
2022/08/01 07:55:48;;;;;;;3.60;1.50;;;;;;;27.37;35.76;94744.09;5061893;28;20464;-70
2022/08/01 07:58:14;;;;;;;3.20;1.92;;;;;;;27.37;35.87;94735.13;5048987;28;20087;-71
2022/08/01 08:00:40;;;;;;;2.95;1.67;;;;;;;27.45;35.57;94755.09;5050326;28;20084;-73
2022/08/01 08:03:05;;;;;;;4.10;1.90;;;;;;;27.34;36.04;94749.94;5060589;28;20090;-74
2022/08/01 08:05:32;;;;;;;4.85;2.00;;;;;;;27.28;35.73;94735.63;5066008;28;20483;-76
2022/08/01 08:07:57;;;;;;;3.58;2.00;;;;;;;27.52;35.54;94768.13;5062981;28;20045;-72
2022/08/01 08:10:23;;;;;;;5.03;1.80;;;;;;;27.27;35.81;94739.66;5070529;28;20028;-62
2022/08/01 08:12:48;;;;;;;4.07;1.70;;;;;;;27.44;36.19;94764.59;5064166;28;20032;-69
2022/08/01 08:15:14;;;;;;;4.60;1.80;;;;;;;27.38;36.07;94756.53;5067106;28;20490;-73
2022/08/01 08:17:39;;;;;;;2.88;1.95;;;;;;;27.31;37.12;94761.97;5064482;28;20146;-70
2022/08/01 08:20:06;;;;;;;3.47;1.60;;;;;;;27.43;36.70;94782.34;5071228;28;20490;-70
2022/08/01 08:22:31;;;;;;;6.97;1.90;;;;;;;27.32;36.58;94746.97;5057082;28;20098;-69
2022/08/01 08:24:57;;;;;;;4.82;1.90;;;;;;;27.44;36.60;94768.06;5050055;28;20036;-65
2022/08/01 08:27:22;;;;;;;4.60;1.63;;;;;;;27.42;36.36;94761.66;5049089;28;20041;-71
2022/08/01 08:29:48;;;;;;;3.40;1.67;;;;;;;27.41;36.74;94765.66;5051135;28;20036;-73
2022/08/01 08:32:13;;;;;;;2.95;1.60;;;;;;;27.07;36.54;94715.03;5043200;28;20353;-73
2022/08/01 08:34:39;;;;;;;2.47;1.60;;;;;;;27.19;36.15;94732.66;4895309;28;32785;-61
2022/08/01 08:37:04;;;;;;;3.47;2.00;;;;;;;27.33;36.21;94748.44;4939280;28;20034;-66
2022/08/01 08:39:31;;;;;;;3.40;1.80;;;;;;;27.17;36.15;94719.47;4997445;28;20034;-61
2022/08/01 08:41:58;;;;;;;2.47;2.03;;;;;;;27.39;36.29;94768.94;4997215;28;20044;-64
2022/08/01 08:44:24;;;;;;;2.50;1.58;;;;;;;27.35;36.24;94751.38;4990657;28;20409;-62
2022/08/01 08:46:55;;;;;;;4.30;1.70;;;;;;;27.32;35.92;94746.97;4987566;28;20065;-65
2022/08/01 08:49:26;;;;;;;3.85;1.58;;;;;;;27.37;36.19;94748.84;5008130;28;20030;-64
2022/08/01 08:51:52;;;;;;;2.35;1.70;;;;;;;27.34;36.11;94760.91;5006329;28;20084;-61
2022/08/01 08:54:20;;;;;;;4.00;1.70;;;;;;;27.31;35.44;94732.53;5027715;28;20298;-63
2022/08/01 08:56:46;;;;;;;3.40;1.50;;;;;;;27.29;35.56;94712.41;4993149;28;20034;-64
2022/08/01 08:59:13;;;;;;;4.18;1.92;;;;;;;27.35;34.94;94735.66;5000018;28;20073;-65
2022/08/01 09:01:38;;;;;;;2.05;1.58;;;;;;;27.35;34.95;94721.22;4988644;28;20420;-65
2022/08/01 09:04:04;;;;;;;2.92;1.70;;;;;;;27.25;34.97;94717.53;4987808;28;20075;-64
2022/08/01 09:06:30;;;;;;;2.03;1.67;;;;;;;27.44;35.15;94759.09;4987281;28;20042;-62
2022/08/01 09:08:57;;;;;;;2.80;1.80;;;;;;;27.43;34.97;94758.38;5005340;28;20049;-71
2022/08/01 09:11:22;;;;;;;4.07;2.10;;;;;;;27.51;35.00;94748.19;5010866;28;20041;-63
2022/08/01 09:14:04;;;;;;;5.47;1.42;;;;;;;27.49;34.92;94739.03;5007146;28;20465;-64
2022/08/01 09:16:30;;;;;;;3.58;1.60;;;;;;;27.28;35.21;94708.22;5006848;28;20097;-65
2022/08/01 09:19:09;;;;;;;4.35;1.40;;;;;;;27.55;35.29;94734.09;4993197;28;20049;-67
2022/08/01 09:21:35;;;;;;;3.25;1.65;;;;;;;27.52;35.02;94727.72;5006753;28;20034;-67
2022/08/01 09:24:05;;;;;;;2.60;1.50;;;;;;;27.64;34.14;94739.81;5007286;28;20018;-69
2022/08/01 09:26:34;;;;;;;3.47;1.77;;;;;;;27.49;34.61;94706.81;5003970;28;20035;-65
2022/08/01 09:29:04;;;;;;;3.50;1.77;;;;;;;27.75;34.14;94712.03;5004221;28;20449;-64
2022/08/01 09:31:41;;;;;;;2.38;1.50;;;;;;;27.84;33.19;94731.47;5005804;28;20165;-61
2022/08/01 09:34:09;;;;;;;3.60;1.50;;;;;;;27.98;33.74;94729.28;5005955;28;20532;-66
2022/08/01 09:37:01;;;;;;;2.83;1.35;;;;;;;27.83;33.33;94680.59;5015890;28;20030;-62
2022/08/01 09:39:36;;;;;;;3.53;1.63;;;;;;;28.22;33.48;94712.31;5005464;28;20433;-62
2022/08/01 09:42:22;;;;;;;3.78;1.42;;;;;;;28.39;33.31;94729.75;5004980;28;20018;-65
2022/08/01 09:44:48;;;;;;;3.25;1.85;;;;;;;28.55;33.31;94703.72;4988114;28;20409;-63
2022/08/01 09:47:13;;;;;;;2.80;1.30;;;;;;;28.73;33.65;94720.59;5004194;28;20026;-68
2022/08/01 09:49:40;;;;;;;2.35;1.52;;;;;;;28.84;32.75;94725.69;4989728;28;20095;-66
2022/08/01 09:52:16;;;;;;;4.22;1.63;;;;;;;29.12;33.19;94722.72;5005510;28;20524;-62
2022/08/01 09:54:42;;;;;;;3.00;1.48;;;;;;;29.17;32.88;94730.03;5006028;28;20202;-65
2022/08/01 09:57:15;;;;;;;3.20;1.80;;;;;;;29.16;33.25;94694.84;5015656;28;20160;-63
2022/08/01 09:59:43;;;;;;;4.47;1.70;;;;;;;29.41;32.66;94721.19;4989533;28;20042;-66
2022/08/01 10:02:11;;;;;;;3.85;2.17;;;;;;;29.27;32.63;94695.19;5001330;28;20030;-64
2022/08/01 10:04:36;;;;;;;3.38;1.83;;;;;;;29.41;32.17;94696.41;5006601;28;20064;-70
2022/08/01 10:07:06;;;;;;;3.97;2.00;;;;;;;29.72;31.84;94740.50;5011784;28;20492;-66
2022/08/01 10:09:34;;;;;;;4.45;2.03;;;;;;;29.79;31.94;94728.75;4969780;28;20046;-65
2022/08/01 10:12:00;;;;;;;5.05;1.77;;;;;;;29.84;32.09;94716.78;4982144;28;20097;-66
2022/08/01 10:14:26;;;;;;;4.38;2.50;;;;;;;29.89;32.15;94707.56;4986716;28;20130;-69
2022/08/01 10:16:53;;;;;;;7.18;2.25;;;;;;;29.93;31.87;94683.13;4978298;28;20433;-62
2022/08/01 10:19:18;;;;;;;3.55;1.75;;;;;;;29.99;32.07;94686.41;4970112;28;20039;-62
2022/08/01 10:21:44;;;;;;;5.20;2.35;;;;;;;30.13;31.79;94695.84;4964640;28;20081;-66
2022/08/01 10:24:09;;;;;;;3.10;1.63;;;;;;;30.17;31.22;94707.22;4969450;28;20508;-67
2022/08/01 10:26:35;;;;;;;5.07;1.80;;;;;;;30.02;30.69;94679.78;4982981;28;20034;-63
2022/08/01 10:29:01;;;;;;;2.42;1.60;;;;;;;30.29;30.69;94699.97;4950185;28;20046;-62
2022/08/01 10:31:27;;;;;;;3.60;1.75;;;;;;;30.35;31.10;94706.00;4928730;28;20122;-66
2022/08/01 10:33:52;;;;;;;2.90;1.70;;;;;;;30.54;30.71;94686.91;4948342;28;20035;-69
2022/08/01 10:36:21;;;;;;;3.33;1.60;;;;;;;30.66;30.85;94697.66;4948971;28;20450;-65
2022/08/01 10:38:46;;;;;;;3.08;1.77;;;;;;;30.68;31.24;94699.84;4948307;28;20031;-66
2022/08/01 10:41:12;;;;;;;1.90;1.58;;;;;;;30.63;31.02;94686.28;4962890;28;20046;-67
2022/08/01 10:43:37;;;;;;;6.80;1.77;;;;;;;30.73;31.15;94696.88;4978082;28;20043;-65
2022/08/01 10:46:03;;;;;;;2.40;1.60;;;;;;;30.78;31.16;94687.63;4950439;28;20517;-66
2022/08/01 10:48:41;;;;;;;4.85;2.08;;;;;;;30.91;31.07;94687.34;4949949;28;20058;-67
2022/08/01 10:51:07;;;;;;;5.28;1.63;;;;;;;30.85;30.82;94664.00;4963056;28;20062;-68
2022/08/01 10:53:33;;;;;;;3.13;1.60;;;;;;;30.65;30.57;94657.56;4948556;28;20039;-68
2022/08/01 10:56:07;;;;;;;5.63;2.00;;;;;;;30.82;30.70;94676.16;4949515;28;20248;-66
2022/08/01 10:58:37;;;;;;;3.72;1.45;;;;;;;31.00;30.54;94697.72;4958044;28;20047;-71
2022/08/01 11:01:15;;;;;;;2.53;1.58;;;;;;;31.17;30.11;94689.44;4950464;28;20259;-70
2022/08/01 11:04:03;;;;;;;3.85;1.42;;;;;;;31.19;30.42;94703.41;4948279;28;20093;-69
2022/08/01 11:06:36;;;;;;;3.47;1.65;;;;;;;31.14;30.61;94687.81;4947277;28;20037;-69
2022/08/01 11:09:04;;;;;;;2.30;1.48;;;;;;;31.24;30.02;94666.53;4975643;28;20054;-65
2022/08/01 11:11:30;;;;;;;2.58;1.63;;;;;;;31.29;30.00;94668.34;4994731;28;20438;-64
2022/08/01 11:14:12;;;;;;;2.83;1.30;;;;;;;31.33;30.14;94679.69;4996341;28;20450;-65
2022/08/01 11:16:38;;;;;;;3.85;2.05;;;;;;;31.32;29.57;94658.91;4994870;28;20054;-69
2022/08/01 11:19:04;;;;;;;2.38;1.23;;;;;;;31.34;29.28;94661.81;4991994;28;20538;-68
2022/08/01 11:21:51;;;;;;;2.22;1.40;;;;;;;31.52;30.41;94674.34;4985220;28;20042;-69
2022/08/01 11:24:46;;;;;;;2.05;1.58;;;;;;;31.43;30.19;94677.75;4989939;28;20039;-70
2022/08/01 11:27:22;;;;;;;4.35;1.52;;;;;;;31.36;30.40;94678.53;4984480;28;20125;-70
2022/08/01 11:30:09;;;;;;;4.07;1.50;;;;;;;31.50;30.11;94683.19;4989027;28;20043;-70
2022/08/01 11:32:48;;;;;;;4.50;1.90;;;;;;;31.56;30.32;94674.66;4986537;28;20424;-70
2022/08/01 11:35:13;;;;;;;4.60;1.70;;;;;;;31.42;29.94;94657.72;4990951;28;20038;-71
2022/08/01 11:37:39;;;;;;;3.85;1.50;;;;;;;31.51;29.89;94670.09;4990566;28;20038;-64
2022/08/01 11:40:21;;;;;;;4.03;1.35;;;;;;;31.42;30.06;94670.75;5004100;28;21352;-70